YVO weather

Val-d'Or Airport
Val-d'Or, Quebec, Canada

Public forecast

Using degrees Celsius for public forecast. Weather courtesy of forecast.io.

Current aviation weather report (METAR) for Val-d'Or Airport

Retrieved 2019/10/20 15:00 UTC (22 minutes ago):

CYVO 201500Z 16011KT 15SM SCT160 SCT200 07/02 A2993 RMK AC3CC1 SLP151

Aviation forecast (TAF) for Val-d'Or Airport

Retrieved 2019/10/20 12:00 UTC (3 hours ago):

TAF CYVO 201138Z 2012/2024 17006KT P6SM SCT230 FM202000 19008KT P6SM FEW040 BKN080 TEMPO 2020/2024 BKN040 OVC080 RMK NXT FCST BY 201800Z